Main page
METAR-TAF:

METAR-TAF

Airports :

Tekamah Municipal Airport

Tekamah, Nebraska, United States

latitude: 41-46-01N, longitude: 096-10-40W, elevation: 1027 ft

Current weather observation

The report was made 1 hour and 21 minutes ago, at 22:54 UTC
Wind 13 mph from the North/Northeast
Temperature 88°F
Humidity 33%
Pressure 29.91 in. Hg
Visibility: 10 miles
Broken clouds at a height of 8000 ft

METAR: KTQE 132254Z AUTO 03011KT 10SM BKN080 31/13 A2991 RMK AO2 SLP114 T03110133

Time: 19:15 (00:15 UTC)


TAF: missing

Weather observations and forecasts of more than 4000 airports (METAR and TAF reports).

The available stations are represented by yellow and red dots on the map.

Hover mouse over dot to see the name of the station.

Then click to see weather observations and forecasts.

To change the map : click on the green buttons with a black cross to zoom in, on the green button with a dash to zoom out, or on the green arrows for adjacent maps.


METAR-TAF: